sensor_id;sensor_type;location;lat;lon;timestamp;P1;durP1;ratioP1;P2;durP2;ratioP2
42600;SDS011;28229;48.856;9.088;2023-01-16T00:02:16;3.27;;;1.10;;
42600;SDS011;28229;48.856;9.088;2023-01-16T00:04:42;1.83;;;1.00;;
42600;SDS011;28229;48.856;9.088;2023-01-16T00:07:08;2.40;;;1.27;;
42600;SDS011;28229;48.856;9.088;2023-01-16T00:09:34;1.50;;;1.07;;
42600;SDS011;28229;48.856;9.088;2023-01-16T00:12:00;1.13;;;1.03;;
42600;SDS011;28229;48.856;9.088;2023-01-16T00:14:28;1.60;;;0.87;;
42600;SDS011;28229;48.856;9.088;2023-01-16T00:16:55;0.80;;;0.73;;
42600;SDS011;28229;48.856;9.088;2023-01-16T00:19:22;2.20;;;1.00;;
42600;SDS011;28229;48.856;9.088;2023-01-16T00:21:48;0.63;;;0.50;;
42600;SDS011;28229;48.856;9.088;2023-01-16T00:24:14;2.53;;;1.10;;
42600;SDS011;28229;48.856;9.088;2023-01-16T00:26:40;1.93;;;0.80;;
42600;SDS011;28229;48.856;9.088;2023-01-16T00:29:07;2.43;;;0.80;;
42600;SDS011;28229;48.856;9.088;2023-01-16T00:31:33;1.13;;;0.70;;
42600;SDS011;28229;48.856;9.088;2023-01-16T00:33:59;1.67;;;1.50;;
42600;SDS011;28229;48.856;9.088;2023-01-16T00:36:25;2.33;;;0.80;;
42600;SDS011;28229;48.856;9.088;2023-01-16T00:38:51;2.30;;;0.87;;
42600;SDS011;28229;48.856;9.088;2023-01-16T00:41:17;1.47;;;0.60;;
42600;SDS011;28229;48.856;9.088;2023-01-16T00:43:44;1.83;;;0.70;;
42600;SDS011;28229;48.856;9.088;2023-01-16T00:46:10;3.03;;;0.77;;
42600;SDS011;28229;48.856;9.088;2023-01-16T00:48:36;1.80;;;0.73;;
42600;SDS011;28229;48.856;9.088;2023-01-16T00:51:02;3.37;;;0.80;;
42600;SDS011;28229;48.856;9.088;2023-01-16T00:53:29;4.37;;;1.00;;
42600;SDS011;28229;48.856;9.088;2023-01-16T00:55:55;2.70;;;0.70;;
42600;SDS011;28229;48.856;9.088;2023-01-16T00:58:21;3.27;;;0.90;;
42600;SDS011;28229;48.856;9.088;2023-01-16T01:00:47;3.20;;;0.90;;
42600;SDS011;28229;48.856;9.088;2023-01-16T01:03:15;3.33;;;0.70;;
42600;SDS011;28229;48.856;9.088;2023-01-16T01:05:41;2.03;;;0.80;;
42600;SDS011;28229;48.856;9.088;2023-01-16T01:08:07;3.73;;;0.83;;
42600;SDS011;28229;48.856;9.088;2023-01-16T01:10:35;2.53;;;0.70;;
42600;SDS011;28229;48.856;9.088;2023-01-16T01:13:04;3.50;;;0.77;;
42600;SDS011;28229;48.856;9.088;2023-01-16T01:15:31;2.30;;;1.00;;
42600;SDS011;28229;48.856;9.088;2023-01-16T01:17:58;1.63;;;0.63;;
42600;SDS011;28229;48.856;9.088;2023-01-16T01:20:24;0.50;;;0.50;;
42600;SDS011;28229;48.856;9.088;2023-01-16T01:22:50;0.70;;;0.60;;
42600;SDS011;28229;48.856;9.088;2023-01-16T01:25:16;1.47;;;0.77;;
42600;SDS011;28229;48.856;9.088;2023-01-16T01:27:43;1.40;;;0.77;;
42600;SDS011;28229;48.856;9.088;2023-01-16T01:30:09;3.07;;;0.70;;
42600;SDS011;28229;48.856;9.088;2023-01-16T01:32:36;2.47;;;0.83;;
42600;SDS011;28229;48.856;9.088;2023-01-16T01:35:06;2.20;;;1.27;;
42600;SDS011;28229;48.856;9.088;2023-01-16T01:37:33;1.93;;;0.90;;
42600;SDS011;28229;48.856;9.088;2023-01-16T01:40:01;4.10;;;0.90;;
42600;SDS011;28229;48.856;9.088;2023-01-16T01:42:35;2.73;;;1.10;;
42600;SDS011;28229;48.856;9.088;2023-01-16T01:47:50;1.83;;;0.80;;
42600;SDS011;28229;48.856;9.088;2023-01-16T01:50:47;1.20;;;1.00;;
42600;SDS011;28229;48.856;9.088;2023-01-16T01:53:28;1.27;;;0.63;;
42600;SDS011;28229;48.856;9.088;2023-01-16T01:55:59;1.03;;;0.80;;
42600;SDS011;28229;48.856;9.088;2023-01-16T01:58:31;1.97;;;0.80;;
42600;SDS011;28229;48.856;9.088;2023-01-16T02:00:59;1.87;;;0.90;;
42600;SDS011;28229;48.856;9.088;2023-01-16T02:03:31;1.93;;;0.70;;
42600;SDS011;28229;48.856;9.088;2023-01-16T02:06:02;1.83;;;0.60;;
42600;SDS011;28229;48.856;9.088;2023-01-16T02:08:33;2.00;;;0.87;;
42600;SDS011;28229;48.856;9.088;2023-01-16T02:11:05;2.77;;;0.67;;
42600;SDS011;28229;48.856;9.088;2023-01-16T02:13:54;1.93;;;0.80;;
42600;SDS011;28229;48.856;9.088;2023-01-16T02:16:22;1.40;;;0.90;;
42600;SDS011;28229;48.856;9.088;2023-01-16T02:19:09;1.77;;;0.90;;
42600;SDS011;28229;48.856;9.088;2023-01-16T02:28:02;0.80;;;0.60;;
42600;SDS011;28229;48.856;9.088;2023-01-16T02:36:55;1.17;;;0.77;;
42600;SDS011;28229;48.856;9.088;2023-01-16T02:39:38;0.60;;;0.60;;
42600;SDS011;28229;48.856;9.088;2023-01-16T02:42:11;1.33;;;0.80;;
42600;SDS011;28229;48.856;9.088;2023-01-16T02:51:10;0.60;;;0.60;;
42600;SDS011;28229;48.856;9.088;2023-01-16T02:53:47;1.67;;;0.70;;
42600;SDS011;28229;48.856;9.088;2023-01-16T02:56:24;2.47;;;0.80;;
42600;SDS011;28229;48.856;9.088;2023-01-16T02:58:56;1.87;;;0.80;;
42600;SDS011;28229;48.856;9.088;2023-01-16T03:01:24;1.63;;;0.70;;
42600;SDS011;28229;48.856;9.088;2023-01-16T03:04:02;1.63;;;0.70;;
42600;SDS011;28229;48.856;9.088;2023-01-16T03:06:31;2.83;;;0.83;;
42600;SDS011;28229;48.856;9.088;2023-01-16T03:20:27;3.43;;;1.10;;
42600;SDS011;28229;48.856;9.088;2023-01-16T03:23:08;3.77;;;1.00;;
42600;SDS011;28229;48.856;9.088;2023-01-16T03:25:47;3.60;;;1.27;;
42600;SDS011;28229;48.856;9.088;2023-01-16T03:31:12;2.93;;;1.47;;
42600;SDS011;28229;48.856;9.088;2023-01-16T03:36:56;2.73;;;0.90;;
42600;SDS011;28229;48.856;9.088;2023-01-16T03:39:28;1.73;;;1.13;;
42600;SDS011;28229;48.856;9.088;2023-01-16T03:42:00;2.20;;;0.97;;
42600;SDS011;28229;48.856;9.088;2023-01-16T03:44:32;1.77;;;0.70;;
42600;SDS011;28229;48.856;9.088;2023-01-16T03:47:03;2.47;;;0.70;;
42600;SDS011;28229;48.856;9.088;2023-01-16T03:49:37;1.97;;;0.50;;
42600;SDS011;28229;48.856;9.088;2023-01-16T03:52:09;1.37;;;0.70;;
42600;SDS011;28229;48.856;9.088;2023-01-16T03:59:36;3.37;;;1.00;;
42600;SDS011;28229;48.856;9.088;2023-01-16T04:02:07;1.87;;;0.70;;
42600;SDS011;28229;48.856;9.088;2023-01-16T04:04:40;2.00;;;0.70;;
42600;SDS011;28229;48.856;9.088;2023-01-16T04:10:05;1.10;;;0.60;;
42600;SDS011;28229;48.856;9.088;2023-01-16T04:12:36;2.27;;;0.80;;
42600;SDS011;28229;48.856;9.088;2023-01-16T04:15:09;1.20;;;0.70;;
42600;SDS011;28229;48.856;9.088;2023-01-16T04:17:36;2.20;;;0.60;;
42600;SDS011;28229;48.856;9.088;2023-01-16T04:20:04;3.37;;;0.70;;
42600;SDS011;28229;48.856;9.088;2023-01-16T04:22:31;2.23;;;0.70;;
42600;SDS011;28229;48.856;9.088;2023-01-16T04:24:58;3.50;;;0.70;;
42600;SDS011;28229;48.856;9.088;2023-01-16T04:27:27;2.03;;;0.63;;
42600;SDS011;28229;48.856;9.088;2023-01-16T04:29:53;1.83;;;0.87;;
42600;SDS011;28229;48.856;9.088;2023-01-16T04:32:19;2.13;;;0.80;;
42600;SDS011;28229;48.856;9.088;2023-01-16T04:34:46;4.00;;;0.70;;
42600;SDS011;28229;48.856;9.088;2023-01-16T04:37:12;1.47;;;0.80;;
42600;SDS011;28229;48.856;9.088;2023-01-16T04:39:40;2.97;;;0.80;;
42600;SDS011;28229;48.856;9.088;2023-01-16T04:42:07;5.40;;;1.03;;
42600;SDS011;28229;48.856;9.088;2023-01-16T04:44:33;1.77;;;0.50;;
42600;SDS011;28229;48.856;9.088;2023-01-16T04:46:59;1.23;;;0.83;;
42600;SDS011;28229;48.856;9.088;2023-01-16T04:49:26;3.57;;;0.70;;
42600;SDS011;28229;48.856;9.088;2023-01-16T04:51:52;3.50;;;0.80;;
42600;SDS011;28229;48.856;9.088;2023-01-16T04:54:19;1.80;;;0.70;;
42600;SDS011;28229;48.856;9.088;2023-01-16T04:56:46;3.17;;;1.10;;
42600;SDS011;28229;48.856;9.088;2023-01-16T04:59:12;3.30;;;1.13;;
42600;SDS011;28229;48.856;9.088;2023-01-16T05:01:39;2.60;;;1.30;;
42600;SDS011;28229;48.856;9.088;2023-01-16T05:04:06;1.77;;;0.90;;
42600;SDS011;28229;48.856;9.088;2023-01-16T05:06:35;1.77;;;0.90;;
42600;SDS011;28229;48.856;9.088;2023-01-16T05:09:01;3.00;;;0.77;;
42600;SDS011;28229;48.856;9.088;2023-01-16T05:11:29;0.93;;;0.80;;
42600;SDS011;28229;48.856;9.088;2023-01-16T05:13:55;2.43;;;1.00;;
42600;SDS011;28229;48.856;9.088;2023-01-16T05:16:21;1.17;;;0.80;;
42600;SDS011;28229;48.856;9.088;2023-01-16T05:18:48;2.67;;;1.40;;
42600;SDS011;28229;48.856;9.088;2023-01-16T05:21:14;3.07;;;1.37;;
42600;SDS011;28229;48.856;9.088;2023-01-16T05:23:40;2.37;;;1.00;;
42600;SDS011;28229;48.856;9.088;2023-01-16T05:26:06;3.87;;;1.20;;
42600;SDS011;28229;48.856;9.088;2023-01-16T05:28:33;1.67;;;0.97;;
42600;SDS011;28229;48.856;9.088;2023-01-16T05:31:00;2.27;;;0.80;;
42600;SDS011;28229;48.856;9.088;2023-01-16T05:33:26;2.77;;;1.13;;
42600;SDS011;28229;48.856;9.088;2023-01-16T05:35:53;1.63;;;1.10;;
42600;SDS011;28229;48.856;9.088;2023-01-16T05:38:19;1.73;;;1.17;;
42600;SDS011;28229;48.856;9.088;2023-01-16T05:40:46;1.77;;;1.27;;
42600;SDS011;28229;48.856;9.088;2023-01-16T05:43:12;1.40;;;1.20;;
42600;SDS011;28229;48.856;9.088;2023-01-16T05:45:39;2.10;;;1.30;;
42600;SDS011;28229;48.856;9.088;2023-01-16T05:48:05;1.63;;;1.10;;
42600;SDS011;28229;48.856;9.088;2023-01-16T05:50:32;3.60;;;1.13;;
42600;SDS011;28229;48.856;9.088;2023-01-16T05:52:58;2.23;;;1.00;;
42600;SDS011;28229;48.856;9.088;2023-01-16T05:55:24;2.40;;;1.00;;
42600;SDS011;28229;48.856;9.088;2023-01-16T05:57:51;3.10;;;1.00;;
42600;SDS011;28229;48.856;9.088;2023-01-16T06:00:17;1.93;;;1.00;;
42600;SDS011;28229;48.856;9.088;2023-01-16T06:02:44;1.97;;;0.93;;
42600;SDS011;28229;48.856;9.088;2023-01-16T06:05:12;3.07;;;0.93;;
42600;SDS011;28229;48.856;9.088;2023-01-16T06:07:39;2.13;;;1.33;;
42600;SDS011;28229;48.856;9.088;2023-01-16T06:10:08;1.60;;;1.10;;
42600;SDS011;28229;48.856;9.088;2023-01-16T06:12:35;2.80;;;1.00;;
42600;SDS011;28229;48.856;9.088;2023-01-16T06:15:01;3.27;;;1.03;;
42600;SDS011;28229;48.856;9.088;2023-01-16T06:17:28;2.13;;;0.80;;
42600;SDS011;28229;48.856;9.088;2023-01-16T06:19:54;2.27;;;0.70;;
42600;SDS011;28229;48.856;9.088;2023-01-16T06:22:49;1.33;;;0.70;;
42600;SDS011;28229;48.856;9.088;2023-01-16T06:25:15;2.53;;;1.00;;
42600;SDS011;28229;48.856;9.088;2023-01-16T06:27:46;2.27;;;0.83;;
42600;SDS011;28229;48.856;9.088;2023-01-16T06:30:14;1.97;;;1.10;;
42600;SDS011;28229;48.856;9.088;2023-01-16T06:32:40;2.27;;;0.90;;
42600;SDS011;28229;48.856;9.088;2023-01-16T06:35:07;2.50;;;0.77;;
42600;SDS011;28229;48.856;9.088;2023-01-16T06:37:33;1.57;;;0.87;;
42600;SDS011;28229;48.856;9.088;2023-01-16T06:39:59;2.53;;;1.03;;
42600;SDS011;28229;48.856;9.088;2023-01-16T06:42:27;3.80;;;1.10;;
42600;SDS011;28229;48.856;9.088;2023-01-16T06:44:53;2.03;;;0.90;;
42600;SDS011;28229;48.856;9.088;2023-01-16T06:47:19;3.47;;;1.10;;
42600;SDS011;28229;48.856;9.088;2023-01-16T06:49:46;2.03;;;1.03;;
42600;SDS011;28229;48.856;9.088;2023-01-16T06:52:12;4.07;;;1.00;;
42600;SDS011;28229;48.856;9.088;2023-01-16T06:54:38;1.87;;;1.00;;
42600;SDS011;28229;48.856;9.088;2023-01-16T06:57:04;1.90;;;0.90;;
42600;SDS011;28229;48.856;9.088;2023-01-16T06:59:31;2.07;;;0.80;;
42600;SDS011;28229;48.856;9.088;2023-01-16T07:01:57;2.40;;;1.23;;
42600;SDS011;28229;48.856;9.088;2023-01-16T07:04:23;2.33;;;1.20;;
42600;SDS011;28229;48.856;9.088;2023-01-16T07:06:49;2.30;;;1.40;;
42600;SDS011;28229;48.856;9.088;2023-01-16T07:09:18;3.10;;;1.20;;
42600;SDS011;28229;48.856;9.088;2023-01-16T07:11:44;2.90;;;1.00;;
42600;SDS011;28229;48.856;9.088;2023-01-16T07:14:11;1.63;;;1.00;;
42600;SDS011;28229;48.856;9.088;2023-01-16T07:16:55;1.73;;;1.00;;
42600;SDS011;28229;48.856;9.088;2023-01-16T07:19:40;2.53;;;0.97;;
42600;SDS011;28229;48.856;9.088;2023-01-16T07:22:35;3.43;;;1.00;;
42600;SDS011;28229;48.856;9.088;2023-01-16T07:25:37;3.73;;;1.00;;
42600;SDS011;28229;48.856;9.088;2023-01-16T07:27:59;2.07;;;1.00;;
42600;SDS011;28229;48.856;9.088;2023-01-16T07:30:25;2.07;;;1.10;;
42600;SDS011;28229;48.856;9.088;2023-01-16T07:33:05;3.20;;;1.10;;
42600;SDS011;28229;48.856;9.088;2023-01-16T07:35:32;1.00;;;0.93;;
42600;SDS011;28229;48.856;9.088;2023-01-16T07:37:58;1.77;;;1.40;;
42600;SDS011;28229;48.856;9.088;2023-01-16T07:40:24;2.60;;;1.10;;
42600;SDS011;28229;48.856;9.088;2023-01-16T07:42:50;2.70;;;1.40;;
42600;SDS011;28229;48.856;9.088;2023-01-16T07:45:17;3.37;;;2.00;;
42600;SDS011;28229;48.856;9.088;2023-01-16T07:47:43;1.70;;;1.30;;
42600;SDS011;28229;48.856;9.088;2023-01-16T07:50:10;2.83;;;1.63;;
42600;SDS011;28229;48.856;9.088;2023-01-16T07:52:36;3.07;;;1.60;;
42600;SDS011;28229;48.856;9.088;2023-01-16T07:55:02;2.77;;;1.50;;
42600;SDS011;28229;48.856;9.088;2023-01-16T07:57:29;2.27;;;1.60;;
42600;SDS011;28229;48.856;9.088;2023-01-16T07:59:55;3.90;;;1.60;;
42600;SDS011;28229;48.856;9.088;2023-01-16T08:02:21;3.20;;;1.70;;
42600;SDS011;28229;48.856;9.088;2023-01-16T08:04:47;1.80;;;1.57;;
42600;SDS011;28229;48.856;9.088;2023-01-16T08:07:14;3.40;;;1.60;;
42600;SDS011;28229;48.856;9.088;2023-01-16T08:09:40;2.03;;;1.50;;
42600;SDS011;28229;48.856;9.088;2023-01-16T08:12:06;5.37;;;1.90;;
42600;SDS011;28229;48.856;9.088;2023-01-16T08:14:32;4.60;;;1.67;;
42600;SDS011;28229;48.856;9.088;2023-01-16T08:16:58;2.03;;;1.13;;
42600;SDS011;28229;48.856;9.088;2023-01-16T08:19:24;2.00;;;1.30;;
42600;SDS011;28229;48.856;9.088;2023-01-16T08:21:51;2.87;;;1.27;;
42600;SDS011;28229;48.856;9.088;2023-01-16T08:24:17;3.67;;;1.30;;
42600;SDS011;28229;48.856;9.088;2023-01-16T08:26:44;3.80;;;1.43;;
42600;SDS011;28229;48.856;9.088;2023-01-16T08:29:10;2.67;;;1.47;;
42600;SDS011;28229;48.856;9.088;2023-01-16T08:31:36;3.13;;;1.83;;
42600;SDS011;28229;48.856;9.088;2023-01-16T08:34:02;1.80;;;1.70;;
42600;SDS011;28229;48.856;9.088;2023-01-16T08:36:29;3.20;;;1.47;;
42600;SDS011;28229;48.856;9.088;2023-01-16T08:38:55;2.10;;;1.40;;
42600;SDS011;28229;48.856;9.088;2023-01-16T08:41:21;2.67;;;1.57;;
42600;SDS011;28229;48.856;9.088;2023-01-16T08:44:07;2.70;;;1.50;;
42600;SDS011;28229;48.856;9.088;2023-01-16T08:47:00;3.23;;;1.70;;
42600;SDS011;28229;48.856;9.088;2023-01-16T08:49:48;2.83;;;1.53;;
42600;SDS011;28229;48.856;9.088;2023-01-16T08:52:33;2.93;;;1.80;;
42600;SDS011;28229;48.856;9.088;2023-01-16T08:55:02;2.77;;;1.67;;
42600;SDS011;28229;48.856;9.088;2023-01-16T08:57:29;3.67;;;1.80;;
42600;SDS011;28229;48.856;9.088;2023-01-16T08:59:55;3.30;;;1.80;;
42600;SDS011;28229;48.856;9.088;2023-01-16T09:02:23;4.37;;;2.00;;
42600;SDS011;28229;48.856;9.088;2023-01-16T09:04:50;3.90;;;2.77;;
42600;SDS011;28229;48.856;9.088;2023-01-16T09:07:16;3.70;;;2.33;;
42600;SDS011;28229;48.856;9.088;2023-01-16T09:09:43;4.60;;;1.97;;
42600;SDS011;28229;48.856;9.088;2023-01-16T09:12:09;2.23;;;1.70;;
42600;SDS011;28229;48.856;9.088;2023-01-16T09:14:55;2.67;;;1.60;;
42600;SDS011;28229;48.856;9.088;2023-01-16T09:17:22;4.67;;;2.43;;
42600;SDS011;28229;48.856;9.088;2023-01-16T09:19:49;2.33;;;1.90;;
42600;SDS011;28229;48.856;9.088;2023-01-16T09:22:15;5.27;;;2.50;;
42600;SDS011;28229;48.856;9.088;2023-01-16T09:24:42;4.03;;;2.87;;
42600;SDS011;28229;48.856;9.088;2023-01-16T09:27:08;2.33;;;2.10;;
42600;SDS011;28229;48.856;9.088;2023-01-16T09:29:34;2.10;;;1.37;;
42600;SDS011;28229;48.856;9.088;2023-01-16T09:32:01;2.60;;;1.60;;
42600;SDS011;28229;48.856;9.088;2023-01-16T09:34:33;2.17;;;1.53;;
42600;SDS011;28229;48.856;9.088;2023-01-16T09:37:01;1.67;;;1.10;;
42600;SDS011;28229;48.856;9.088;2023-01-16T09:39:27;2.37;;;1.30;;
42600;SDS011;28229;48.856;9.088;2023-01-16T09:44:45;1.13;;;0.90;;
42600;SDS011;28229;48.856;9.088;2023-01-16T09:47:14;1.37;;;1.00;;
42600;SDS011;28229;48.856;9.088;2023-01-16T09:49:45;1.23;;;0.70;;
42600;SDS011;28229;48.856;9.088;2023-01-16T09:52:17;1.27;;;0.60;;
42600;SDS011;28229;48.856;9.088;2023-01-16T09:55:15;1.53;;;0.80;;
42600;SDS011;28229;48.856;9.088;2023-01-16T09:58:04;0.87;;;0.80;;
42600;SDS011;28229;48.856;9.088;2023-01-16T10:00:54;1.00;;;0.90;;
42600;SDS011;28229;48.856;9.088;2023-01-16T10:03:21;1.13;;;0.90;;
42600;SDS011;28229;48.856;9.088;2023-01-16T10:11:50;1.17;;;0.90;;
42600;SDS011;28229;48.856;9.088;2023-01-16T10:24:50;4.00;;;1.07;;
42600;SDS011;28229;48.856;9.088;2023-01-16T10:27:19;1.20;;;1.10;;
42600;SDS011;28229;48.856;9.088;2023-01-16T10:29:55;1.70;;;1.10;;
42600;SDS011;28229;48.856;9.088;2023-01-16T10:32:35;2.60;;;0.80;;
42600;SDS011;28229;48.856;9.088;2023-01-16T10:37:37;1.20;;;1.10;;
42600;SDS011;28229;48.856;9.088;2023-01-16T10:40:10;1.27;;;0.80;;
42600;SDS011;28229;48.856;9.088;2023-01-16T10:43:04;0.80;;;0.80;;
42600;SDS011;28229;48.856;9.088;2023-01-16T10:45:55;2.10;;;1.20;;
42600;SDS011;28229;48.856;9.088;2023-01-16T10:48:48;3.20;;;0.97;;
42600;SDS011;28229;48.856;9.088;2023-01-16T10:51:33;1.17;;;0.70;;
42600;SDS011;28229;48.856;9.088;2023-01-16T10:54:00;0.97;;;0.70;;
42600;SDS011;28229;48.856;9.088;2023-01-16T10:56:28;0.80;;;0.80;;
42600;SDS011;28229;48.856;9.088;2023-01-16T10:58:55;1.37;;;0.60;;
42600;SDS011;28229;48.856;9.088;2023-01-16T11:01:22;1.43;;;0.93;;
42600;SDS011;28229;48.856;9.088;2023-01-16T11:03:52;1.77;;;0.50;;
42600;SDS011;28229;48.856;9.088;2023-01-16T11:06:21;0.73;;;0.70;;
42600;SDS011;28229;48.856;9.088;2023-01-16T15:33:24;3.97;;;0.80;;
42600;SDS011;28229;48.856;9.088;2023-01-16T15:36:20;0.40;;;0.40;;
42600;SDS011;28229;48.856;9.088;2023-01-16T15:39:18;0.67;;;0.67;;
42600;SDS011;28229;48.856;9.088;2023-01-16T15:42:04;0.30;;;0.30;;
42600;SDS011;28229;48.856;9.088;2023-01-16T15:44:56;0.63;;;0.60;;
42600;SDS011;28229;48.856;9.088;2023-01-16T15:52:59;0.70;;;0.70;;
42600;SDS011;28229;48.856;9.088;2023-01-16T15:55:27;0.60;;;0.60;;
42600;SDS011;28229;48.856;9.088;2023-01-16T15:57:56;0.77;;;0.77;;
42600;SDS011;28229;48.856;9.088;2023-01-16T16:00:33;0.63;;;0.63;;
42600;SDS011;28229;48.856;9.088;2023-01-16T16:03:15;1.43;;;1.20;;
42600;SDS011;28229;48.856;9.088;2023-01-16T16:05:47;1.27;;;1.10;;
42600;SDS011;28229;48.856;9.088;2023-01-16T16:08:17;0.80;;;0.80;;
42600;SDS011;28229;48.856;9.088;2023-01-16T16:10:46;2.20;;;1.10;;
42600;SDS011;28229;48.856;9.088;2023-01-16T16:13:31;0.60;;;0.60;;
42600;SDS011;28229;48.856;9.088;2023-01-16T16:16:01;0.70;;;0.70;;
42600;SDS011;28229;48.856;9.088;2023-01-16T16:18:57;1.30;;;0.80;;
42600;SDS011;28229;48.856;9.088;2023-01-16T16:21:28;1.60;;;0.80;;
42600;SDS011;28229;48.856;9.088;2023-01-16T16:24:04;1.80;;;0.90;;
42600;SDS011;28229;48.856;9.088;2023-01-16T16:26:40;0.70;;;0.70;;
42600;SDS011;28229;48.856;9.088;2023-01-16T16:29:15;1.37;;;0.70;;
42600;SDS011;28229;48.856;9.088;2023-01-16T16:31:45;0.80;;;0.80;;
42600;SDS011;28229;48.856;9.088;2023-01-16T16:36:50;1.03;;;0.83;;
42600;SDS011;28229;48.856;9.088;2023-01-16T16:39:38;0.63;;;0.63;;
42600;SDS011;28229;48.856;9.088;2023-01-16T16:47:35;1.53;;;1.00;;
42600;SDS011;28229;48.856;9.088;2023-01-16T16:53:02;1.10;;;0.93;;
42600;SDS011;28229;48.856;9.088;2023-01-16T16:55:35;1.57;;;1.33;;
42600;SDS011;28229;48.856;9.088;2023-01-16T16:58:04;1.93;;;1.20;;
42600;SDS011;28229;48.856;9.088;2023-01-16T17:00:38;1.57;;;1.47;;
42600;SDS011;28229;48.856;9.088;2023-01-16T17:03:10;2.50;;;2.30;;
42600;SDS011;28229;48.856;9.088;2023-01-16T17:05:41;1.20;;;1.20;;
42600;SDS011;28229;48.856;9.088;2023-01-16T17:08:09;1.50;;;1.40;;
42600;SDS011;28229;48.856;9.088;2023-01-16T17:10:41;1.13;;;1.10;;
42600;SDS011;28229;48.856;9.088;2023-01-16T17:13:08;1.50;;;1.13;;
42600;SDS011;28229;48.856;9.088;2023-01-16T17:15:36;1.53;;;1.00;;
42600;SDS011;28229;48.856;9.088;2023-01-16T17:18:02;1.70;;;1.60;;
42600;SDS011;28229;48.856;9.088;2023-01-16T17:20:30;2.30;;;2.10;;
42600;SDS011;28229;48.856;9.088;2023-01-16T17:22:57;1.87;;;1.60;;
42600;SDS011;28229;48.856;9.088;2023-01-16T17:25:24;1.37;;;1.10;;
42600;SDS011;28229;48.856;9.088;2023-01-16T17:27:51;2.20;;;1.53;;
42600;SDS011;28229;48.856;9.088;2023-01-16T17:30:18;1.50;;;1.40;;
42600;SDS011;28229;48.856;9.088;2023-01-16T17:32:46;1.43;;;1.33;;
42600;SDS011;28229;48.856;9.088;2023-01-16T17:35:39;1.43;;;1.20;;
42600;SDS011;28229;48.856;9.088;2023-01-16T17:38:09;1.50;;;1.40;;
42600;SDS011;28229;48.856;9.088;2023-01-16T17:40:44;2.30;;;1.30;;
42600;SDS011;28229;48.856;9.088;2023-01-16T17:43:20;2.50;;;1.70;;
42600;SDS011;28229;48.856;9.088;2023-01-16T17:46:09;1.30;;;1.20;;
42600;SDS011;28229;48.856;9.088;2023-01-16T17:48:39;1.20;;;1.10;;
42600;SDS011;28229;48.856;9.088;2023-01-16T17:51:06;3.57;;;1.90;;
42600;SDS011;28229;48.856;9.088;2023-01-16T17:53:33;2.00;;;1.80;;
42600;SDS011;28229;48.856;9.088;2023-01-16T17:56:01;2.87;;;1.70;;
42600;SDS011;28229;48.856;9.088;2023-01-16T17:58:30;1.33;;;1.20;;
42600;SDS011;28229;48.856;9.088;2023-01-16T18:01:09;2.50;;;1.53;;
42600;SDS011;28229;48.856;9.088;2023-01-16T18:03:36;1.03;;;1.00;;
42600;SDS011;28229;48.856;9.088;2023-01-16T18:06:03;1.23;;;0.90;;
42600;SDS011;28229;48.856;9.088;2023-01-16T18:08:31;2.33;;;1.63;;
42600;SDS011;28229;48.856;9.088;2023-01-16T18:10:59;1.20;;;1.00;;
42600;SDS011;28229;48.856;9.088;2023-01-16T18:13:46;2.57;;;1.47;;
42600;SDS011;28229;48.856;9.088;2023-01-16T18:16:31;1.73;;;1.50;;
42600;SDS011;28229;48.856;9.088;2023-01-16T18:19:15;3.30;;;2.23;;
42600;SDS011;28229;48.856;9.088;2023-01-16T18:21:42;0.90;;;0.90;;
42600;SDS011;28229;48.856;9.088;2023-01-16T18:26:54;1.07;;;1.00;;
42600;SDS011;28229;48.856;9.088;2023-01-16T18:29:20;0.80;;;0.80;;
42600;SDS011;28229;48.856;9.088;2023-01-16T18:31:46;0.70;;;0.70;;
42600;SDS011;28229;48.856;9.088;2023-01-16T18:34:31;0.40;;;0.40;;
42600;SDS011;28229;48.856;9.088;2023-01-16T18:36:58;1.20;;;0.60;;
42600;SDS011;28229;48.856;9.088;2023-01-16T18:39:24;0.43;;;0.43;;
42600;SDS011;28229;48.856;9.088;2023-01-16T18:42:09;0.70;;;0.70;;
42600;SDS011;28229;48.856;9.088;2023-01-16T18:44:54;0.50;;;0.50;;
42600;SDS011;28229;48.856;9.088;2023-01-16T18:47:39;0.60;;;0.60;;
42600;SDS011;28229;48.856;9.088;2023-01-16T18:50:24;0.77;;;0.70;;
42600;SDS011;28229;48.856;9.088;2023-01-16T18:53:28;0.60;;;0.60;;
42600;SDS011;28229;48.856;9.088;2023-01-16T18:56:20;0.60;;;0.60;;
42600;SDS011;28229;48.856;9.088;2023-01-16T18:59:17;0.50;;;0.50;;
42600;SDS011;28229;48.856;9.088;2023-01-16T19:04:36;0.60;;;0.60;;
42600;SDS011;28229;48.856;9.088;2023-01-16T19:07:04;0.63;;;0.50;;
42600;SDS011;28229;48.856;9.088;2023-01-16T19:09:33;0.50;;;0.50;;
42600;SDS011;28229;48.856;9.088;2023-01-16T19:12:02;0.87;;;0.40;;
42600;SDS011;28229;48.856;9.088;2023-01-16T19:14:32;0.73;;;0.50;;
42600;SDS011;28229;48.856;9.088;2023-01-16T19:17:00;0.60;;;0.60;;
42600;SDS011;28229;48.856;9.088;2023-01-16T19:19:26;1.33;;;0.70;;
42600;SDS011;28229;48.856;9.088;2023-01-16T19:21:56;1.70;;;1.00;;
42600;SDS011;28229;48.856;9.088;2023-01-16T19:24:24;1.20;;;0.90;;
42600;SDS011;28229;48.856;9.088;2023-01-16T19:26:53;1.07;;;0.97;;
42600;SDS011;28229;48.856;9.088;2023-01-16T19:29:20;1.13;;;0.90;;
42600;SDS011;28229;48.856;9.088;2023-01-16T19:31:47;1.43;;;0.90;;
42600;SDS011;28229;48.856;9.088;2023-01-16T19:34:15;1.60;;;0.80;;
42600;SDS011;28229;48.856;9.088;2023-01-16T19:36:42;0.80;;;0.80;;
42600;SDS011;28229;48.856;9.088;2023-01-16T19:39:10;2.17;;;1.10;;
42600;SDS011;28229;48.856;9.088;2023-01-16T19:41:36;1.73;;;1.30;;
42600;SDS011;28229;48.856;9.088;2023-01-16T19:44:22;3.70;;;2.30;;
42600;SDS011;28229;48.856;9.088;2023-01-16T19:47:07;3.20;;;2.63;;
42600;SDS011;28229;48.856;9.088;2023-01-16T19:49:34;1.23;;;1.03;;
42600;SDS011;28229;48.856;9.088;2023-01-16T19:52:00;1.50;;;1.00;;
42600;SDS011;28229;48.856;9.088;2023-01-16T19:54:27;1.00;;;0.93;;
42600;SDS011;28229;48.856;9.088;2023-01-16T19:56:54;0.60;;;0.60;;
42600;SDS011;28229;48.856;9.088;2023-01-16T19:59:21;1.00;;;0.90;;
42600;SDS011;28229;48.856;9.088;2023-01-16T20:04:22;1.00;;;0.70;;
42600;SDS011;28229;48.856;9.088;2023-01-16T20:06:49;2.77;;;1.57;;
42600;SDS011;28229;48.856;9.088;2023-01-16T20:09:16;1.30;;;1.20;;
42600;SDS011;28229;48.856;9.088;2023-01-16T20:11:43;1.80;;;1.30;;
42600;SDS011;28229;48.856;9.088;2023-01-16T20:14:28;1.90;;;1.10;;
42600;SDS011;28229;48.856;9.088;2023-01-16T20:16:57;2.93;;;1.80;;
42600;SDS011;28229;48.856;9.088;2023-01-16T20:19:24;1.87;;;1.30;;
42600;SDS011;28229;48.856;9.088;2023-01-16T20:21:54;1.00;;;0.90;;
42600;SDS011;28229;48.856;9.088;2023-01-16T20:24:21;0.97;;;0.97;;
42600;SDS011;28229;48.856;9.088;2023-01-16T20:26:48;1.93;;;1.00;;
42600;SDS011;28229;48.856;9.088;2023-01-16T20:29:18;1.10;;;1.03;;
42600;SDS011;28229;48.856;9.088;2023-01-16T20:31:45;2.53;;;1.83;;
42600;SDS011;28229;48.856;9.088;2023-01-16T20:34:12;1.17;;;1.10;;
42600;SDS011;28229;48.856;9.088;2023-01-16T20:36:38;0.80;;;0.80;;
42600;SDS011;28229;48.856;9.088;2023-01-16T20:39:04;1.03;;;0.70;;
42600;SDS011;28229;48.856;9.088;2023-01-16T20:41:31;1.13;;;0.90;;
42600;SDS011;28229;48.856;9.088;2023-01-16T20:44:17;0.60;;;0.60;;
42600;SDS011;28229;48.856;9.088;2023-01-16T20:47:04;1.10;;;0.70;;
42600;SDS011;28229;48.856;9.088;2023-01-16T20:49:32;1.60;;;0.90;;
42600;SDS011;28229;48.856;9.088;2023-01-16T20:51:58;1.37;;;0.60;;
42600;SDS011;28229;48.856;9.088;2023-01-16T20:54:24;1.40;;;0.80;;
42600;SDS011;28229;48.856;9.088;2023-01-16T20:56:55;1.77;;;0.60;;
42600;SDS011;28229;48.856;9.088;2023-01-16T20:59:22;2.00;;;0.80;;
42600;SDS011;28229;48.856;9.088;2023-01-16T21:01:49;2.17;;;1.03;;
42600;SDS011;28229;48.856;9.088;2023-01-16T21:04:16;1.20;;;0.60;;
42600;SDS011;28229;48.856;9.088;2023-01-16T21:06:47;1.37;;;0.70;;
42600;SDS011;28229;48.856;9.088;2023-01-16T21:09:14;1.33;;;1.20;;